createdAt,value
2023-05-05T05:01:52.831Z,101387.53
2023-05-05T05:04:39.089Z,101395.94
2023-05-05T05:07:25.970Z,101388.81
2023-05-05T05:10:12.270Z,101393.22
2023-05-05T05:12:58.696Z,101396.16
2023-05-05T07:37:56.679Z,101555.19
2023-05-05T07:41:05.383Z,101567.72
2023-05-05T07:55:33.733Z,101572.88
2023-05-05T07:58:25.428Z,101572.72
2023-05-05T08:01:13.362Z,101576.81
2023-05-05T08:04:01.088Z,101587.38
2023-05-05T08:06:50.698Z,101579.16
2023-05-05T08:09:37.896Z,101578.31
2023-05-05T08:12:25.281Z,101580.47
2023-05-05T08:15:13.515Z,101570.91
2023-05-05T08:18:00.667Z,101574.47
2023-05-05T08:20:47.335Z,101561.00
2023-05-05T08:23:34.984Z,101570.91
2023-05-05T08:26:25.297Z,101580.56
2023-05-05T08:29:15.193Z,101585.38
2023-05-05T08:32:03.950Z,101582.06
2023-05-05T08:34:52.778Z,101596.06
2023-05-05T08:37:39.290Z,101599.00
2023-05-05T08:40:33.011Z,101601.91
2023-05-05T08:43:22.837Z,101595.50
2023-05-05T08:46:12.490Z,101592.72
2023-05-05T08:49:03.855Z,101599.78
2023-05-05T08:51:55.263Z,101593.47
2023-05-05T08:54:50.560Z,101602.13
2023-05-05T08:58:34.191Z,101590.88
2023-05-05T09:02:09.768Z,101588.19
2023-05-05T09:05:46.964Z,101583.41
2023-05-05T09:08:36.963Z,101582.72
2023-05-05T09:11:23.474Z,101591.78
2023-05-05T09:14:11.043Z,101585.78
2023-05-05T09:41:55.527Z,101584.50
2023-05-05T09:46:40.603Z,101567.06
2023-05-05T09:59:52.269Z,101510.31
2023-05-05T10:04:20.898Z,101499.22
2023-05-05T10:33:50.557Z,101513.47
2023-05-05T10:36:39.196Z,101524.72
2023-05-05T10:39:27.271Z,101514.06
2023-05-05T10:42:16.223Z,101516.59
2023-05-05T10:45:03.081Z,101516.44
2023-05-05T10:47:51.308Z,101520.84
2023-05-05T10:50:45.721Z,101532.16
2023-05-05T10:53:37.349Z,101533.31
2023-05-05T10:56:29.233Z,101541.03
2023-05-05T10:59:40.697Z,101528.41
2023-05-05T11:02:28.045Z,101537.47
2023-05-05T11:05:18.291Z,101536.00
2023-05-05T11:08:26.300Z,101541.94
2023-05-05T11:11:14.003Z,101541.56
2023-05-05T11:14:22.322Z,101545.59
2023-05-05T11:17:45.251Z,101558.38
2023-05-05T11:21:09.041Z,101563.66
2023-05-05T11:24:29.888Z,101556.47
2023-05-05T11:27:15.988Z,101566.22
2023-05-05T11:30:07.821Z,101572.97
2023-05-05T11:33:24.621Z,101571.53
2023-05-05T11:36:12.564Z,101567.09
2023-05-05T11:39:05.997Z,101571.31
2023-05-05T11:42:18.738Z,101584.94
2023-05-05T11:45:20.777Z,101572.75
2023-05-05T11:48:25.532Z,101572.38
2023-05-05T11:51:13.104Z,101574.41
2023-05-05T11:53:59.402Z,101572.06
2023-05-05T11:56:51.073Z,101575.50
2023-05-05T11:59:50.994Z,101570.63
2023-05-05T12:02:37.557Z,101567.97
2023-05-05T12:05:23.882Z,101563.75
2023-05-05T12:08:10.753Z,101561.41
2023-05-05T12:11:03.624Z,101568.19
2023-05-05T12:13:49.657Z,101570.06
2023-05-05T12:16:37.865Z,101565.69
2023-05-05T12:19:29.766Z,101554.09
2023-05-05T12:22:21.420Z,101557.66
2023-05-05T12:25:09.131Z,101550.94
2023-05-05T12:27:55.416Z,101551.13
2023-05-05T12:30:41.826Z,101546.09
2023-05-05T12:33:29.584Z,101547.56
2023-05-05T12:36:16.343Z,101534.09
2023-05-05T12:39:03.340Z,101530.75
2023-05-05T12:41:50.932Z,101532.63
2023-05-05T12:44:38.080Z,101539.34
2023-05-05T12:47:33.894Z,101544.81
2023-05-05T12:50:32.065Z,101546.66
2023-05-05T12:53:24.346Z,101553.63
2023-05-05T12:56:36.432Z,101548.97
2023-05-05T12:59:31.987Z,101554.00
2023-05-05T13:02:18.462Z,101561.19
2023-05-05T13:05:05.659Z,101570.59
2023-05-05T13:07:53.412Z,101570.84
2023-05-05T13:10:43.104Z,101567.94
2023-05-05T13:13:33.333Z,101574.16
2023-05-05T13:16:24.285Z,101579.44
2023-05-05T13:19:29.184Z,101592.09
2023-05-05T13:22:19.249Z,101593.19
2023-05-05T13:25:16.421Z,101597.25
2023-05-05T13:28:08.231Z,101599.38
2023-05-05T13:31:21.915Z,101601.66
2023-05-05T13:34:18.734Z,101595.56
2023-05-05T13:37:19.156Z,101578.56
2023-05-05T13:40:15.087Z,101567.22
2023-05-05T13:43:23.299Z,101573.66
2023-05-05T13:46:20.910Z,101570.38
2023-05-05T13:49:17.087Z,101576.69
2023-05-05T13:52:41.694Z,101574.19
2023-05-05T13:55:38.895Z,101563.88
2023-05-05T13:58:46.727Z,101553.06
2023-05-05T14:01:44.961Z,101541.44
2023-05-05T14:04:43.412Z,101533.81
2023-05-05T14:07:39.634Z,101521.69
2023-05-05T14:10:57.491Z,101521.88
2023-05-05T14:14:06.122Z,101516.03
2023-05-05T14:17:21.531Z,101511.81
2023-05-05T14:20:23.800Z,101501.28
2023-05-05T14:23:24.331Z,101490.78
2023-05-05T14:29:51.093Z,101492.22
2023-05-05T14:33:02.601Z,101510.53
2023-05-05T14:36:11.680Z,101509.06
2023-05-05T14:39:20.090Z,101511.53
2023-05-05T14:42:29.372Z,101504.75
2023-05-05T14:45:34.152Z,101504.09
2023-05-05T14:48:26.852Z,101499.69
2023-05-05T14:51:29.581Z,101513.00
2023-05-05T14:54:33.152Z,101508.91
2023-05-05T14:57:33.736Z,101528.84
2023-05-05T16:01:36.104Z,101541.31
2023-05-05T16:04:22.807Z,101545.84
2023-05-05T16:07:09.070Z,101537.63
2023-05-05T16:09:56.509Z,101535.06
2023-05-05T16:12:42.710Z,101543.16
2023-05-05T16:47:36.946Z,101547.50
2023-05-05T16:50:24.035Z,101547.69
2023-05-05T16:53:10.605Z,101546.91
2023-05-05T16:56:01.568Z,101550.66
2023-05-05T16:58:52.487Z,101536.28
2023-05-05T17:04:36.601Z,101507.41
2023-05-05T17:07:23.165Z,101510.25
2023-05-05T17:10:10.629Z,101515.72
2023-05-05T17:12:56.815Z,101513.41
2023-05-05T17:15:44.711Z,101520.66
2023-05-05T17:18:31.187Z,101519.75
2023-05-05T17:21:17.290Z,101511.63
2023-05-05T17:24:03.377Z,101512.72
2023-05-05T17:26:49.505Z,101511.22
2023-05-05T17:29:40.389Z,101499.41
2023-05-05T17:32:28.299Z,101500.81
2023-05-05T17:35:15.510Z,101506.53
2023-05-05T17:38:01.729Z,101494.41
2023-05-05T17:40:47.939Z,101512.31
2023-05-05T17:43:43.457Z,101516.97
2023-05-05T17:46:30.288Z,101520.41
2023-05-05T17:49:23.741Z,101514.22
2023-05-05T17:52:10.576Z,101520.22
2023-05-05T17:54:56.853Z,101517.47
2023-05-05T17:57:43.322Z,101510.22
2023-05-05T18:00:31.264Z,101513.56
2023-05-05T18:03:17.723Z,101518.22
2023-05-05T18:06:08.526Z,101519.22
2023-05-05T18:08:57.632Z,101522.78
2023-05-05T18:11:45.407Z,101517.53
2023-05-05T18:14:32.634Z,101519.44
2023-05-05T18:17:19.581Z,101520.03
2023-05-05T18:20:08.673Z,101520.69
2023-05-05T18:22:56.536Z,101519.63
2023-05-05T18:26:09.162Z,101516.50
2023-05-05T18:28:56.034Z,101515.41
2023-05-05T18:31:42.693Z,101517.56
2023-05-05T18:34:29.936Z,101524.09
2023-05-05T18:37:16.343Z,101523.69
2023-05-05T18:40:06.188Z,101526.47
2023-05-05T18:42:52.380Z,101523.13
2023-05-05T18:45:55.057Z,101518.19
2023-05-05T18:48:41.724Z,101521.44
2023-05-05T18:51:28.289Z,101528.75
2023-05-05T18:54:53.106Z,101522.28
2023-05-05T18:57:40.539Z,101531.53
2023-05-05T19:26:29.454Z,101536.69
2023-05-05T19:29:16.058Z,101541.25
2023-05-05T19:32:02.093Z,101532.31
2023-05-05T19:34:48.864Z,101531.06
2023-05-05T19:37:35.138Z,101525.66
2023-05-05T19:40:21.502Z,101521.13
2023-05-05T19:43:09.552Z,101505.84
2023-05-05T19:45:55.646Z,101512.25
2023-05-05T19:48:42.067Z,101518.66
2023-05-05T19:51:29.052Z,101514.09
2023-05-05T19:54:15.892Z,101519.00
2023-05-05T19:57:02.567Z,101519.94
2023-05-05T19:59:50.139Z,101522.34
2023-05-05T20:05:56.143Z,101537.78
2023-05-05T20:08:42.356Z,101534.69
2023-05-05T20:11:29.530Z,101544.50
2023-05-05T20:14:15.554Z,101550.06
2023-05-05T20:17:01.164Z,101545.59
2023-05-05T20:19:53.355Z,101544.53
2023-05-05T20:22:40.585Z,101550.97
2023-05-05T20:25:34.665Z,101549.00
2023-05-05T20:28:21.473Z,101547.31
2023-05-05T20:31:09.391Z,101550.50
2023-05-05T20:33:57.404Z,101539.03
2023-05-05T20:36:44.134Z,101543.53
2023-05-05T20:39:30.601Z,101537.81
2023-05-05T20:42:16.982Z,101537.38
2023-05-05T20:45:05.578Z,101533.13
2023-05-05T20:47:51.937Z,101527.72
2023-05-05T20:50:40.099Z,101522.22
2023-05-05T20:53:26.874Z,101527.44
2023-05-05T20:56:13.208Z,101527.16
2023-05-05T20:58:59.652Z,101521.69
2023-05-05T21:01:46.500Z,101519.00
2023-05-05T21:04:32.483Z,101526.03
2023-05-05T21:07:20.171Z,101523.91
2023-05-05T21:10:08.387Z,101519.97
2023-05-05T21:12:55.055Z,101520.59
2023-05-05T21:15:41.385Z,101516.63
2023-05-05T21:18:27.725Z,101516.88
2023-05-05T21:21:14.003Z,101516.16
2023-05-05T21:24:02.001Z,101520.38
2023-05-05T21:26:48.826Z,101517.69
2023-05-05T21:29:37.753Z,101522.50
2023-05-05T21:32:24.400Z,101525.81
2023-05-05T21:35:10.749Z,101517.47
2023-05-05T21:37:57.353Z,101524.56
2023-05-05T21:40:44.702Z,101520.75
2023-05-05T21:43:31.119Z,101523.81
2023-05-05T21:46:17.993Z,101528.63
2023-05-05T21:49:12.784Z,101532.78
2023-05-05T21:51:58.784Z,101527.78
2023-05-05T21:54:44.956Z,101532.38
2023-05-05T21:57:32.516Z,101527.47
2023-05-05T22:00:19.204Z,101526.91
2023-05-05T22:03:05.580Z,101520.03
2023-05-05T22:05:51.716Z,101514.00
2023-05-05T22:08:37.829Z,101519.13
2023-05-05T22:11:24.202Z,101524.13
2023-05-05T22:14:11.906Z,101526.09
